AirNav   Textron
 
 318 users online  

KPOC Brackett Field Airport
La Verne, California, USA

GOING TO LA VERNE?


FAA INFORMATION EFFECTIVE 14 SEPTEMBER 2017

Location

FAA Identifier: POC
Lat/Long: 34-05-30.0000N / 117-46-54.4000W
34-05.500000N / 117-46.906667W
34.0916667 / -117.7817778
(estimated)
Elevation: 1013.9 ft. / 309.0 m (surveyed)
Variation: 14E (1980)
From city: 1 mile SW of LA VERNE, CA
Time zone: UTC -7 (UTC -8 during Standard Time)
Zip code: 91750

Airport Operations

Airport use: Open to the public
Activation date: 01/1942
Control tower: yes
ARTCC: LOS ANGELES CENTER
FSS: RIVERSIDE FLIGHT SERVICE STATION
NOTAMs facility: POC (NOTAM-D service available)
Attendance: CONTINUOUS
Pattern altitude: 2013.9 ft. MSL
Wind indicator: lighted
Segmented circle: yes
Lights: ARPT LGTS OPERATE CONTINUOUSLY FM 2100-0700 LCL, WHEN ATCT CLSD.
Beacon: white-green (lighted land airport)
Operates sunset to sunrise.

Airport Communications

CTAF: 118.2
UNICOM: 122.95
ATIS: 124.4
BRACKETT GROUND: 125.0 [0700-2100]
BRACKETT TOWER: 133.3 RY 08L/26R [0700-2100]
SOCAL APPROACH: 125.5
SOCAL DEPARTURE: 125.5
CLEARANCE DELIVERY: 121.875
LC/P: 118.2 RY 08R/26L
WX ASOS at ONT (9 nm E): PHONE 909-937-2186
WX ASOS at CNO (10 nm SE): PHONE 909-393-5823
WX AWOS-3PT at EMT (13 nm W): 118.75 ((626) 444-1107)
WX AWOS-3PT at AJO (15 nm SE): 132.175 (951-340-4764)
WX ASOS at FUL (16 nm SW): PHONE 714-870-1372
WX ASOS at RAL (19 nm SE): PHONE 951-352-4392
  • FOR CLNC DEL WHEN ATCT CLSD CALL SOCAL APCH (800) 448-3724.

Nearby radio navigation aids

VOR radial/distance  VOR name  Freq  Var
POM at fieldPOMONA VORTAC110.4015E
PDZr295/16.3PARADISE VORTAC112.2015E
RALr282/(18.4)RIVERSIDE VOR112.4014E
SLIr021/23.0SEAL BEACH VORTAC115.7015E
ELBr340/25.1EL TORO VOR/DME117.2014E
LAXr059/33.7LOS ANGELES VORTAC113.6015E
SMOr067/33.9SANTA MONICA VOR/DME110.8015E
HDFr289/(35.2)HOMELAND VOR113.4014E
PMDr142/35.3PALMDALE VORTAC114.5015E
VCVr199/35.9VICTORVILLE VOR/DME109.0514E
VNYr088/36.1VAN NUYS VOR/DME113.1015E

 
NDB name  Hdg/Dist  Freq  Var  ID
EL MONTE074/12.435915EEMT . -- -

Airport Services

Fuel available: 100LL JET-A
Parking: tiedowns
Airframe service: MAJOR
Powerplant service: MAJOR
Bottled oxygen: LOW

Runway Information

Runway 8R/26L

Dimensions: 4840 x 75 ft. / 1475 x 23 m
Surface: asphalt, in good condition
Weight bearing capacity: 
Single wheel: 26.0
Runway edge lights: medium intensity
RUNWAY 8R  RUNWAY 26L
Latitude: 34-05.502838N34-05.458277N
Longitude: 117-47.430285W117-46.472718W
Elevation: 965.3 ft.1011.1 ft.
Gradient: 0.9%0.9%
Traffic pattern: rightleft
Runway heading: 079 magnetic, 093 true259 magnetic, 273 true
Displaced threshold: no689 ft.
Markings: precision, in good conditionprecision, in good condition
Visual slope indicator: 4-light PAPI on left (3.76 degrees glide path)
PAPI UNUSBL BYD 5 DEGREES LEFT OF CENTERLINE.
4-light PAPI on left (3.76 degrees glide path)
Runway end identifier lights: yesyes
Touchdown point: yes, no lightsyes, no lights
Instrument approach: ILS
Obstructions: 254 ft. hill, 3651 ft. from runway, 800 ft. left of centerline, 13:1 slope to clear15 ft. road, 200 ft. from runway, 290 ft. left of centerline
APCH RATIO TO DSPLCD THR 50:1. APCH RATIO TO DSPLCD THR OVER +65 FT POLES 1988 FT FROM DSPLCD THR, 250 FT L, 30:1.

Runway 8L/26R

Dimensions: 3661 x 75 ft. / 1116 x 23 m
Surface: asphalt, in good condition
Weight bearing capacity: 
Single wheel: 12.5
RUNWAY 8L  RUNWAY 26R
Latitude: 34-05.542152N34-05.508445N
Longitude: 117-47.208622W117-46.484380W
Elevation: 979.1 ft.1013.9 ft.
Gradient: 0.9%0.9%
Traffic pattern: leftright
Runway heading: 079 magnetic, 093 true259 magnetic, 273 true
Markings: basic, in good conditionbasic, in good condition
Runway end identifier lights: nono
Touchdown point: yes, no lightsyes, no lights
Obstructions: 240 ft. hill, 4750 ft. from runway, 500 ft. left of centerline, 18:1 slope to clear15 ft. road, 540 ft. from runway, 159 ft. left of centerline, 22:1 slope to clear

Airport Ownership and Management from official FAA records

Ownership: Publicly-owned
Owner: COUNTY OF LOS ANGELES
PO BOX 1460
ALHAMBRA, CA 91803-1331
Phone 626-300-4602
LA COUNTY CTC: RICHARD SMITH (626) 300-4600 X4615. AIRPORT MGT CONTRACTED TO - AMERICAN AIRPORTS CORP.
Manager: PETE LONCTEAUX
1615 MC KINLEY AVENUE
LA VERNE, CA 91750
Phone 909-593-1395

Airport Operational Statistics

Aircraft based on the field: 233
Single engine airplanes: 189
Multi engine airplanes: 36
Jet airplanes: 1
Helicopters: 3
Military aircraft: 4
    
Aircraft operations: avg 317/day *
53% transient general aviation
46% local general aviation
<1% air taxi
<1% military
* for 12-month period ending 31 December 2014

Additional Remarks

NOISE ABATEMENT PROCEDURES IN EFFECT CTC AMGR (909) 593-1395.
RY 08L/26R UNLGTD.
BIRDS AND WILDLIFE IN VICINITY OF AIRPORT.
RAPIDLY RISING TERRAIN 1 MILE W-NW OF ARPT.
WHEN POC ATCT CLSD, CTC SOCAL APCH AT 800-448-3724 EXT 3, CLNC DEL SVC.

Instrument Procedures

NOTE: All procedures below are presented as PDF files. If you need a reader for these files, you should download the free Adobe Reader.

NOT FOR NAVIGATION. Please procure official charts for flight.
FAA instrument procedures published for use between 14 September 2017 at 0901Z and 12 October 2017 at 0900Z.

 
STARs - Standard Terminal Arrivals
SETER FIVE **NEW**   download (260KB)
ZIGGY SIX   2 pages: [1] [2] (413KB)
 
IAPs - Instrument Approach Procedures
ILS RWY 26L   download (290KB)
RNAV (GPS) RWY 26L   download (280KB)
LOC RWY 26L   download (305KB)
VOR OR GPS-A   download (237KB)
NOTE: Special Alternate Minimums apply   download (18KB)
NOTE: Special Take-Off Minimums/Departure Procedures apply   download (132KB)

Other nearby airports with instrument procedures:

KCCB - Cable Airport (5 nm E)
KONT - Ontario International Airport (9 nm E)
KCNO - Chino Airport (10 nm SE)
KEMT - San Gabriel Valley Airport (13 nm W)
KAJO - Corona Municipal Airport (15 nm SE)
KFUL - Fullerton Municipal Airport (16 nm SW)
KRAL - Riverside Municipal Airport (19 nm SE)
KRIR - Flabob Airport (19 nm E)
 
Loc | Ops | Rwys | IFR | FBO | Links
Com | Nav | Svcs | Stats | Notes

San Bernardino International Airport Authority
 
Area around KPOC (Brackett Field Airport)
 
Road maps at: MapQuest Bing Google
 
Aerial photo
WARNING: Photo may not be current or correct
Aerial photo of KPOC (Brackett Field Airport)
Photo by David Byrne, focalflight.com
Photo taken 29-May-2014
looking southwest.

Do you have a better or more recent aerial photo of Brackett Field Airport that you would like to share? If so, please send us your photo.

 
Sectional chart

 
Airport diagram
Diagram of KPOC (Brackett Field Airport)
Download PDF
of official airport diagram from the FAA

 
Airport distance calculator
Flying to Brackett Field Airport? Find the distance to fly.

From to KPOC

Sunrise and sunset
Times for 26-Sep-2017
 Local
(UTC-7)
 Zulu
(UTC)
Morning civil twilight06:1813:18
Sunrise06:4313:43
Sunset18:4201:42
Evening civil twilight19:0702:07

Current date and time
Zulu (UTC)  26-Sep-2017 08:01:15
Local (UTC-7)  26-Sep-2017 01:01:15
 
METAR
KPOC 260347Z 00000KT 10SM CLR 20/M02 A2984 RMK LAST
KONT 
10nm E 
260753Z 00000KT 10SM FEW250 18/M02 A2982 RMK AO2 SLP082 FU DSNT S-W T01781017 403170122
KCNO 
10nm SE 
260753Z AUTO 05004KT 6SM HZ CLR 15/06 A2982 RMK AO2 SLP092 T01500056 403330106
KEMT 
12nm W 
260251Z 20003KT 10SM CLR 24/00 A2980
KAJO 
15nm SE 
260756Z AUTO 00000KT 10SM CLR 12/04 A2982 RMK AO2 SLP102 T01170044 403220100
KFUL 
17nm SW 
260753Z AUTO 08004KT 10SM CLR 18/02 A2978 RMK AO2 SLP083 T01830022 403280133
KRAL 
19nm SE 
260753Z 04006KT 10SM CLR 18/01 A2982 RMK AO2 SLP080 T01780011 403170133
TAF
KONT 
10nm E 
260520Z 2606/2712 VRB06KT P6SM FEW250 FM261000 VRB04KT P6SM FEW250 WS015/03020KT FM261600 03010G18KT P6SM FEW250 FM261900 VRB06KT P6SM FEW250 FM262100 26010KT P6SM FEW250 FM270300 VRB04KT P6SM FEW250
NOTAMs
Click for the latest NOTAMs
NOTAMs are issued by the DoD/FAA and will open in a separate window not controlled by AirNav.

 

 
 

FBO, Fuel Providers, and Aircraft Ground Support

  
 Business Name 
 
 Contact 
 
 Services / Description 
 
Fuel Prices
 
Comments
  
 American Airports Corp.
909-593-1395
[web site]
[email]
Airport management, Aviation fuel, Aircraft parking (ramp or tiedown), Hangar leasing / sales, Passenger terminal and lounge, Rental cars, ...

More info about American Airports Corp.
Avfuel
100LL Jet A
FS $5.09 $3.86 
SS $4.89 --- 
 Updated 14-Sep-2017
 
   2 read write
FS=Full service
SS=Self service
Update Fuel Prices
 

Aviation Businesses, Services, and Facilities

  
 Business Name 
 
 Contact 
 
 Services / Description 
 
Distance
 
Comments
  
Leading Edge Avionics
Leading Edge Avionics
toll-free 1-855-955-6151
[web site]
[email]

Like us on facebook See us on instagram Follow us on twitter
Leading Edge Avionics is a FAA Certified Part 145 Repair Station (137R236D) that provides outstanding avionics repair and installation services for all General Aviation aircraft from business jets to helicopters to single engine airplanes. We are committed to delivering our customers with services that ensure uncompromised safety and the highest quality of workmanship and reliability, while exceeding our clients' expectations on all levels. 24/7 AOG Service is also available at all Southern California airports, so call us at (855) 955-6151 and let us exceed all your service expectations!
More info and photos of Leading Edge Avionics
located at KSNA  
   write
 

Would you like to see your business listed on this page?

 If your business provides an interesting product or service to pilots, flight crews, aircraft, or users of the Brackett Field Airport, you should consider listing it here.  To start the listing process, click on the button below
 
Add a business
 

Other Pages about Brackett Field Airport

Update a link
 
Copyright © AirNav, LLC. All rights reserved. Privacy Policy  Contact